Edwardsville, Virginia
Current Conditions -  °F | °C
As of 11:53 AM on Sunday 21 Dec 2014 (Local Time) from KNUI Reporting Station
Overcast Overcast  
Wind Chill: 41°   Ceiling: 7000
Heat Index: 41°   Visibility: 10mi
Dew Point: 27°   Wind: 0mph
Humidity: 57%   Direction: NA
Pressure: 30.34"   Gusts: NA
Location:  37.91°N, 76.37°W
Report Text: KNUI 211653Z AUTO 00000KT 10SM OVC070 05/M03 A3034 RMK AO2 SLP272 T00501028
Loading
Personal Weather Stations






























Interactive Weather Map New forecast layout! Learn more

10-Day Weather Forecast

Advertisements
Track Severe Weather on mobile